createdAt,value
2022-08-28T00:01:11.741Z,100184.69
2022-08-28T00:03:40.992Z,100186.06
2022-08-28T00:06:12.136Z,100183.34
2022-08-28T00:08:41.585Z,100189.47
2022-08-28T00:11:10.597Z,100183.84
2022-08-28T00:13:47.728Z,100182.44
2022-08-28T00:16:18.299Z,100170.59
2022-08-28T00:18:48.023Z,100178.34
2022-08-28T00:21:17.458Z,100180.75
2022-08-28T00:23:46.690Z,100191.19
2022-08-28T00:26:41.470Z,100181.34
2022-08-28T00:29:10.797Z,100172.91
2022-08-28T00:31:40.312Z,100163.00
2022-08-28T00:34:10.905Z,100169.91
2022-08-28T00:36:40.971Z,100173.25
2022-08-28T00:39:11.222Z,100179.25
2022-08-28T00:41:42.898Z,100174.38
2022-08-28T00:44:21.272Z,100170.81
2022-08-28T00:46:53.636Z,100167.50
2022-08-28T00:49:31.859Z,100161.91
2022-08-28T00:52:08.245Z,100171.78
2022-08-28T00:54:58.592Z,100166.44
2022-08-28T00:57:33.048Z,100145.22
2022-08-28T01:00:07.807Z,100160.59
2022-08-28T01:02:37.031Z,100164.31
2022-08-28T01:05:09.527Z,100148.81
2022-08-28T01:07:39.282Z,100153.22
2022-08-28T01:10:12.381Z,100170.69
2022-08-28T01:12:44.803Z,100159.66
2022-08-28T01:15:18.882Z,100147.97
2022-08-28T01:17:58.720Z,100159.34
2022-08-28T01:23:15.056Z,100158.66
2022-08-28T01:25:46.387Z,100149.97
2022-08-28T01:28:20.649Z,100149.44
2022-08-28T01:30:56.240Z,100148.38
2022-08-28T01:33:28.180Z,100143.03
2022-08-28T01:35:58.915Z,100148.06
2022-08-28T01:38:28.094Z,100147.25
2022-08-28T01:41:05.087Z,100141.16
2022-08-28T01:43:34.411Z,100141.00
2022-08-28T01:46:06.770Z,100139.16
2022-08-28T01:48:38.891Z,100128.00
2022-08-28T01:51:08.507Z,100137.59
2022-08-28T01:53:37.881Z,100127.59
2022-08-28T01:56:11.820Z,100131.56
2022-08-28T01:58:42.184Z,100132.59
2022-08-28T02:03:48.909Z,100144.25
2022-08-28T02:06:19.677Z,100149.94
2022-08-28T02:08:55.382Z,100145.47
2022-08-28T02:11:32.426Z,100141.41
2022-08-28T02:14:08.052Z,100133.25
2022-08-28T02:16:37.341Z,100142.28
2022-08-28T02:19:11.781Z,100140.75
2022-08-28T02:21:41.233Z,100147.84
2022-08-28T02:24:10.802Z,100143.66
2022-08-28T02:26:42.930Z,100140.34
2022-08-28T02:29:12.612Z,100135.16
2022-08-28T02:31:42.199Z,100143.38
2022-08-28T02:34:11.318Z,100131.03
2022-08-28T02:36:43.333Z,100132.66
2022-08-28T02:39:12.821Z,100123.25
2022-08-28T02:41:44.338Z,100134.22
2022-08-28T02:44:19.015Z,100124.72
2022-08-28T02:46:49.109Z,100133.94
2022-08-28T02:49:18.508Z,100131.00
2022-08-28T02:54:28.549Z,100135.06
2022-08-28T02:57:00.012Z,100134.91
2022-08-28T02:59:29.918Z,100132.13
2022-08-28T03:02:00.499Z,100136.88
2022-08-28T03:04:29.565Z,100122.97
2022-08-28T03:07:04.033Z,100141.56
2022-08-28T03:09:33.200Z,100131.50
2022-08-28T03:12:04.469Z,100131.44
2022-08-28T03:14:33.618Z,100139.31
2022-08-28T03:17:03.119Z,100136.88
2022-08-28T03:19:32.420Z,100128.09
2022-08-28T03:22:01.465Z,100125.69
2022-08-28T03:24:42.574Z,100129.16
2022-08-28T03:27:13.706Z,100128.16
2022-08-28T03:29:43.050Z,100126.25
2022-08-28T03:34:47.214Z,100116.56
2022-08-28T03:37:16.770Z,100118.69
2022-08-28T03:39:45.883Z,100120.25
2022-08-28T03:42:17.012Z,100128.13
2022-08-28T03:44:48.770Z,100120.25
2022-08-28T03:47:18.030Z,100120.09
2022-08-28T03:49:49.078Z,100117.94
2022-08-28T03:52:18.471Z,100116.88
2022-08-28T03:54:47.688Z,100119.94
2022-08-28T03:57:21.459Z,100097.59
2022-08-28T03:59:52.804Z,100117.47
2022-08-28T04:02:27.191Z,100116.78
2022-08-28T04:04:56.562Z,100110.50
2022-08-28T04:07:25.625Z,100118.78
2022-08-28T04:10:00.234Z,100125.81
2022-08-28T04:12:34.494Z,100126.72
2022-08-28T04:15:06.934Z,100111.59
2022-08-28T04:17:35.986Z,100123.47
2022-08-28T04:20:06.402Z,100091.41
2022-08-28T04:22:41.232Z,100125.22
2022-08-28T04:25:11.075Z,100108.84
2022-08-28T04:27:42.297Z,100113.31
2022-08-28T04:30:13.142Z,100108.38
2022-08-28T04:32:42.684Z,100106.91
2022-08-28T04:35:13.331Z,100119.38
2022-08-28T04:37:48.371Z,100121.50
2022-08-28T04:40:18.909Z,100111.56
2022-08-28T04:42:55.103Z,100124.84
2022-08-28T04:45:29.299Z,100122.84
2022-08-28T04:47:58.598Z,100119.13
2022-08-28T04:50:29.590Z,100124.22
2022-08-28T04:53:03.715Z,100131.59
2022-08-28T04:55:52.296Z,100127.88
2022-08-28T04:58:30.458Z,100122.25
2022-08-28T05:01:08.449Z,100118.84
2022-08-28T05:03:37.824Z,100114.41
2022-08-28T05:06:07.659Z,100110.16
2022-08-28T05:08:37.053Z,100107.03
2022-08-28T05:11:32.909Z,100093.69
2022-08-28T05:14:11.601Z,100095.97
2022-08-28T05:16:46.380Z,100103.28
2022-08-28T05:19:16.115Z,100094.09
2022-08-28T05:21:50.527Z,100102.06
2022-08-28T05:24:20.869Z,100097.41
2022-08-28T05:26:50.199Z,100086.78
2022-08-28T05:29:26.523Z,100083.31
2022-08-28T05:31:55.868Z,100080.50
2022-08-28T05:34:25.264Z,100077.78
2022-08-28T05:36:59.641Z,100071.13
2022-08-28T05:39:28.783Z,100070.66
2022-08-28T05:42:02.903Z,100067.38
2022-08-28T05:44:34.255Z,100063.72
2022-08-28T05:47:08.479Z,100060.22
2022-08-28T05:49:37.677Z,100052.44
2022-08-28T05:52:07.109Z,100048.22
2022-08-28T05:54:37.761Z,100041.25
2022-08-28T05:57:07.336Z,100038.97
2022-08-28T05:59:38.663Z,100048.94
2022-08-28T06:02:07.990Z,100055.34
2022-08-28T06:04:40.108Z,100071.88
2022-08-28T06:07:11.714Z,100069.13
2022-08-28T06:09:44.645Z,100048.94
2022-08-28T06:12:15.273Z,100048.50
2022-08-28T06:14:47.148Z,100049.63
2022-08-28T06:17:16.283Z,100036.66
2022-08-28T06:19:49.188Z,100038.91
2022-08-28T06:22:18.394Z,100041.94
2022-08-28T06:24:47.665Z,100033.75
2022-08-28T06:27:16.820Z,100041.53
2022-08-28T06:29:48.112Z,100044.41
2022-08-28T06:32:17.658Z,100052.13
2022-08-28T06:34:46.795Z,100055.66
2022-08-28T06:37:15.952Z,100053.31
2022-08-28T06:39:50.134Z,100046.53
2022-08-28T06:42:19.679Z,100051.44
2022-08-28T06:44:51.048Z,100044.56
2022-08-28T06:47:20.099Z,100038.09
2022-08-28T06:49:49.383Z,100035.22
2022-08-28T06:52:18.762Z,100041.53
2022-08-28T06:54:55.681Z,100043.78
2022-08-28T06:57:26.230Z,100036.34
2022-08-28T07:00:00.481Z,100042.84
2022-08-28T07:02:31.406Z,100048.06
2022-08-28T07:05:00.773Z,100040.44
2022-08-28T07:07:32.579Z,100041.44
2022-08-28T07:10:07.127Z,100030.28
2022-08-28T07:12:36.517Z,100024.81
2022-08-28T07:15:14.235Z,100034.47
2022-08-28T07:17:43.924Z,100031.78
2022-08-28T07:20:18.001Z,100030.47
2022-08-28T07:22:47.202Z,100034.81
2022-08-28T07:25:26.428Z,100018.41
2022-08-28T07:27:58.239Z,100031.38
2022-08-28T07:30:30.993Z,100031.38
2022-08-28T07:33:00.163Z,100027.69
2022-08-28T07:35:29.258Z,100029.38
2022-08-28T07:37:59.288Z,100022.84
2022-08-28T07:40:28.482Z,100022.91
2022-08-28T07:43:10.666Z,100019.16
2022-08-28T07:48:17.554Z,100017.69
2022-08-28T07:50:50.542Z,100024.22
2022-08-28T07:53:19.865Z,100016.00
2022-08-28T07:55:59.262Z,100019.16
2022-08-28T07:58:34.123Z,100016.72
2022-08-28T08:01:05.898Z,100018.56
2022-08-28T08:03:35.561Z,100021.41
2022-08-28T08:06:06.723Z,100012.28
2022-08-28T08:08:36.295Z,100012.75
2022-08-28T08:11:08.612Z,100013.16
2022-08-28T08:13:41.772Z,100005.81
2022-08-28T08:16:15.218Z,100012.34
2022-08-28T08:18:50.864Z,100007.56
2022-08-28T08:21:30.005Z,100004.06
2022-08-28T08:23:59.859Z,100007.03
2022-08-28T08:26:30.817Z,100004.50
2022-08-28T08:29:00.493Z,100005.91
2022-08-28T08:31:33.780Z,100001.84
2022-08-28T08:34:06.700Z,100003.06
2022-08-28T08:36:38.024Z,100002.06
2022-08-28T08:39:09.706Z,100002.00
2022-08-28T08:41:47.634Z,99993.25
2022-08-28T08:44:33.206Z,99991.91
2022-08-28T08:47:15.312Z,99998.06
2022-08-28T08:49:52.598Z,100002.63
2022-08-28T08:52:31.881Z,100002.53
2022-08-28T08:55:10.553Z,100001.56
2022-08-28T08:57:46.143Z,100002.38
2022-08-28T09:00:19.941Z,99990.31
2022-08-28T09:02:58.932Z,99999.28
2022-08-28T09:05:43.130Z,99989.72
2022-08-28T09:08:23.627Z,99992.66
2022-08-28T09:11:04.633Z,99981.63
2022-08-28T09:13:47.225Z,99991.69
2022-08-28T09:16:33.517Z,99988.94
2022-08-28T09:19:05.253Z,99991.00
2022-08-28T09:21:36.922Z,99978.44
2022-08-28T09:24:14.079Z,99984.88
2022-08-28T09:26:48.421Z,99966.38
2022-08-28T09:29:20.961Z,99979.53
2022-08-28T09:31:50.970Z,99981.31
2022-08-28T09:34:35.485Z,99967.75
2022-08-28T09:37:17.006Z,99972.94
2022-08-28T09:39:48.863Z,99954.97
2022-08-28T09:42:37.267Z,99968.44
2022-08-28T09:45:15.924Z,99972.78
2022-08-28T09:47:53.568Z,99966.66
2022-08-28T09:50:37.047Z,99959.66
2022-08-28T09:53:21.948Z,99954.94
2022-08-28T09:56:05.761Z,99956.31
2022-08-28T09:58:39.092Z,99949.44
2022-08-28T10:01:24.004Z,99945.06
2022-08-28T10:04:09.456Z,99941.28
2022-08-28T10:06:43.656Z,99932.16
2022-08-28T10:09:23.396Z,99943.81
2022-08-28T10:11:59.925Z,99943.56
2022-08-28T10:14:46.583Z,99930.44
2022-08-28T10:17:27.457Z,99932.38
2022-08-28T10:20:05.505Z,99917.75
2022-08-28T10:22:46.547Z,99916.13
2022-08-28T10:25:28.868Z,99920.16
2022-08-28T10:28:23.185Z,99924.25
2022-08-28T10:31:04.968Z,99904.22
2022-08-28T10:33:56.063Z,99917.03
2022-08-28T10:36:34.671Z,99908.06
2022-08-28T10:39:24.114Z,99909.81
2022-08-28T10:41:58.662Z,99907.97
2022-08-28T10:44:37.330Z,99907.06
2022-08-28T10:47:09.496Z,99909.59
2022-08-28T10:49:42.871Z,99901.47
2022-08-28T10:52:17.614Z,99903.84
2022-08-28T10:54:55.028Z,99902.84
2022-08-28T10:57:39.247Z,99894.38
2022-08-28T11:00:13.518Z,99906.13
2022-08-28T11:02:46.461Z,99910.41
2022-08-28T11:05:16.461Z,99897.75
2022-08-28T11:07:51.301Z,99900.09
2022-08-28T11:10:42.986Z,99903.78
2022-08-28T11:13:13.478Z,99902.69
2022-08-28T11:15:55.017Z,99891.97
2022-08-28T11:18:50.683Z,99889.69
2022-08-28T11:21:26.230Z,99899.50
2022-08-28T11:24:06.917Z,99894.53
2022-08-28T11:27:00.794Z,99891.84
2022-08-28T11:30:06.243Z,99883.75
2022-08-28T11:33:03.071Z,99885.94
2022-08-28T11:35:52.288Z,99881.91
2022-08-28T11:38:54.043Z,99883.06
2022-08-28T11:41:30.644Z,99867.53
2022-08-28T11:44:28.172Z,99880.03
2022-08-28T11:47:37.778Z,99874.22
2022-08-28T11:50:16.577Z,99877.09
2022-08-28T11:53:18.515Z,99874.50
2022-08-28T11:56:06.822Z,99871.94
2022-08-28T11:58:43.579Z,99870.00
2022-08-28T12:01:16.154Z,99867.16
2022-08-28T12:03:55.679Z,99866.25
2022-08-28T12:07:13.349Z,99863.25
2022-08-28T12:09:50.629Z,99863.63
2022-08-28T12:12:49.685Z,99864.84
2022-08-28T12:15:41.309Z,99861.75
2022-08-28T12:18:55.506Z,99860.44
2022-08-28T12:21:28.209Z,99866.72
2022-08-28T12:24:09.744Z,99861.69
2022-08-28T12:26:44.175Z,99850.34
2022-08-28T12:29:29.654Z,99862.47
2022-08-28T12:32:19.549Z,99822.84
2022-08-28T12:35:08.359Z,99858.78
2022-08-28T12:37:51.648Z,99850.66
2022-08-28T12:40:25.902Z,99854.97
2022-08-28T12:42:59.705Z,99845.88
2022-08-28T12:45:34.358Z,99845.94
2022-08-28T12:48:07.473Z,99852.34
2022-08-28T12:57:18.105Z,99843.19
2022-08-28T12:59:48.935Z,99844.22
2022-08-28T13:02:27.327Z,99845.44
2022-08-28T13:05:00.749Z,99839.19
2022-08-28T13:07:33.103Z,99839.78
2022-08-28T13:10:05.857Z,99832.00
2022-08-28T13:12:55.155Z,99818.28
2022-08-28T13:15:49.281Z,99827.28
2022-08-28T13:18:37.007Z,99824.50
2022-08-28T13:21:35.205Z,99818.84
2022-08-28T13:24:26.972Z,99827.59
2022-08-28T13:27:06.046Z,99825.56
2022-08-28T13:29:39.058Z,99827.41
2022-08-28T13:32:10.835Z,99823.91
2022-08-28T13:34:45.527Z,99815.06
2022-08-28T13:37:48.932Z,99827.41
2022-08-28T13:43:16.381Z,99827.34
2022-08-28T13:45:49.934Z,99815.88
2022-08-28T13:48:22.000Z,99823.72
2022-08-28T13:50:54.532Z,99827.91
2022-08-28T13:53:29.764Z,99826.53
2022-08-28T13:56:02.293Z,99826.28
2022-08-28T13:58:31.726Z,99826.81
2022-08-28T14:01:03.329Z,99832.31
2022-08-28T14:03:37.611Z,99829.00
2022-08-28T14:06:11.154Z,99827.00
2022-08-28T14:08:40.661Z,99828.22
2022-08-28T14:11:12.647Z,99821.53
2022-08-28T14:13:47.160Z,99831.72
2022-08-28T14:16:27.036Z,99827.88
2022-08-28T14:19:01.507Z,99834.88
2022-08-28T14:21:30.842Z,99820.34
2022-08-28T14:24:00.951Z,99837.28
2022-08-28T14:26:31.280Z,99827.91
2022-08-28T14:29:09.781Z,99830.75
2022-08-28T14:31:43.389Z,99834.41
2022-08-28T14:34:14.801Z,99815.91
2022-08-28T14:36:55.208Z,99833.59
2022-08-28T14:39:25.779Z,99821.97
2022-08-28T14:41:55.961Z,99820.16
2022-08-28T14:44:26.569Z,99817.34
2022-08-28T14:46:58.709Z,99802.34
2022-08-28T14:49:28.907Z,99817.50
2022-08-28T14:52:03.160Z,99817.50
2022-08-28T14:54:32.318Z,99812.88
2022-08-28T14:57:01.601Z,99820.41
2022-08-28T14:59:35.914Z,99799.50
2022-08-28T15:02:07.428Z,99805.56
2022-08-28T15:04:43.273Z,99808.63
2022-08-28T15:07:13.596Z,99811.16
2022-08-28T15:09:48.046Z,99784.88
2022-08-28T15:12:17.833Z,99805.63
2022-08-28T15:14:54.621Z,99802.53
2022-08-28T15:17:34.332Z,99799.56
2022-08-28T15:20:04.639Z,99804.06
2022-08-28T15:25:09.315Z,99794.91
2022-08-28T15:27:40.209Z,99798.94
2022-08-28T15:30:19.963Z,99770.81
2022-08-28T15:32:51.242Z,99790.94
2022-08-28T15:35:20.118Z,99797.91
2022-08-28T15:37:49.577Z,99797.06
2022-08-28T15:40:31.775Z,99791.50
2022-08-28T15:43:01.045Z,99777.88
2022-08-28T15:45:30.367Z,99780.66
2022-08-28T15:48:01.517Z,99784.06
2022-08-28T15:50:30.660Z,99772.00
2022-08-28T15:53:00.041Z,99775.88
2022-08-28T15:55:30.158Z,99773.00
2022-08-28T15:57:59.330Z,99767.25
2022-08-28T16:00:42.448Z,99772.56
2022-08-28T16:03:13.983Z,99775.72
2022-08-28T16:05:42.822Z,99776.91
2022-08-28T16:08:12.341Z,99765.41
2022-08-28T16:10:47.030Z,99767.56
2022-08-28T16:13:16.857Z,99767.91
2022-08-28T16:15:46.160Z,99768.56
2022-08-28T16:18:19.272Z,99767.50
2022-08-28T16:20:48.698Z,99763.91
2022-08-28T16:23:18.635Z,99775.13
2022-08-28T16:25:48.598Z,99773.94
2022-08-28T16:28:17.714Z,99763.91
2022-08-28T16:30:52.093Z,99761.75
2022-08-28T16:33:25.462Z,99760.31
2022-08-28T16:35:56.615Z,99742.56
2022-08-28T16:38:26.113Z,99758.47
2022-08-28T16:40:55.377Z,99754.63
2022-08-28T16:43:26.201Z,99758.13
2022-08-28T16:45:55.890Z,99751.44
2022-08-28T16:48:27.227Z,99758.69
2022-08-28T16:50:56.098Z,99763.38
2022-08-28T16:53:27.307Z,99758.94
2022-08-28T16:55:58.292Z,99757.94
2022-08-28T16:58:27.713Z,99736.56
2022-08-28T17:00:57.402Z,99757.63
2022-08-28T17:03:34.149Z,99760.91
2022-08-28T17:06:08.806Z,99767.75
2022-08-28T17:08:38.283Z,99765.53
2022-08-28T17:11:08.360Z,99762.13
2022-08-28T17:13:38.469Z,99760.69
2022-08-28T17:16:08.651Z,99765.00
2022-08-28T17:18:47.513Z,99768.66
2022-08-28T17:21:38.529Z,99763.84
2022-08-28T17:24:16.732Z,99762.53
2022-08-28T17:26:49.143Z,99748.19
2022-08-28T17:29:18.264Z,99751.59
2022-08-28T17:31:47.598Z,99750.88
2022-08-28T17:34:28.109Z,99734.75
2022-08-28T17:37:02.879Z,99740.00
2022-08-28T17:39:32.192Z,99755.47
2022-08-28T17:42:01.869Z,99744.16
2022-08-28T17:44:31.406Z,99749.66
2022-08-28T17:47:00.590Z,99750.88
2022-08-28T17:49:31.749Z,99745.44
2022-08-28T17:52:01.755Z,99751.09
2022-08-28T17:54:31.068Z,99730.59
2022-08-28T17:57:02.860Z,99733.97
2022-08-28T17:59:37.146Z,99738.47
2022-08-28T18:02:07.598Z,99737.13
2022-08-28T18:07:21.287Z,99728.44
2022-08-28T18:09:53.023Z,99734.63
2022-08-28T18:12:27.246Z,99733.03
2022-08-28T18:14:56.587Z,99730.63
2022-08-28T18:17:27.295Z,99725.81
2022-08-28T18:20:00.254Z,99715.94
2022-08-28T18:22:30.090Z,99731.22
2022-08-28T18:25:00.029Z,99726.75
2022-08-28T18:27:31.088Z,99732.06
2022-08-28T18:30:02.654Z,99737.22
2022-08-28T18:32:33.005Z,99730.34
2022-08-28T18:35:04.316Z,99734.22
2022-08-28T18:37:33.126Z,99732.69
2022-08-28T18:40:02.262Z,99731.16
2022-08-28T18:42:32.043Z,99733.41
2022-08-28T18:45:01.262Z,99726.06
2022-08-28T18:47:30.538Z,99734.94
2022-08-28T18:50:00.020Z,99734.34
2022-08-28T18:52:41.420Z,99735.63
2022-08-28T18:55:12.434Z,99730.69
2022-08-28T18:57:41.701Z,99734.06
2022-08-28T19:00:12.222Z,99697.13
2022-08-28T19:02:41.994Z,99725.88
2022-08-28T19:05:12.034Z,99725.75
2022-08-28T19:07:43.931Z,99730.63
2022-08-28T19:10:32.157Z,99723.78
2022-08-28T19:13:03.956Z,99716.91
2022-08-28T19:15:34.515Z,99712.91
2022-08-28T19:18:04.854Z,99705.50
2022-08-28T19:20:35.369Z,99717.13
2022-08-28T19:23:11.380Z,99712.06
2022-08-28T19:25:43.649Z,99713.13
2022-08-28T19:28:13.766Z,99717.78
2022-08-28T19:30:43.197Z,99711.16
2022-08-28T19:33:12.909Z,99712.09
2022-08-28T19:35:42.593Z,99706.50
2022-08-28T19:38:13.777Z,99715.91
2022-08-28T19:40:45.138Z,99712.75
2022-08-28T19:43:16.757Z,99708.22
2022-08-28T19:45:47.063Z,99697.44
2022-08-28T19:48:16.497Z,99708.75
2022-08-28T19:50:45.872Z,99703.56
2022-08-28T19:53:17.369Z,99707.16
2022-08-28T19:55:46.631Z,99700.09
2022-08-28T19:58:16.110Z,99701.16
2022-08-28T20:00:45.375Z,99701.47
2022-08-28T20:03:14.741Z,99704.56
2022-08-28T20:05:44.473Z,99704.78
2022-08-28T20:08:14.275Z,99699.50
2022-08-28T20:10:46.650Z,99706.88
2022-08-28T20:13:25.930Z,99707.41
2022-08-28T20:15:55.573Z,99695.63
2022-08-28T20:18:27.829Z,99708.50
2022-08-28T20:21:02.163Z,99706.66
2022-08-28T20:23:31.173Z,99704.28
2022-08-28T20:26:08.950Z,99711.34
2022-08-28T20:28:38.237Z,99702.16
2022-08-28T20:31:15.071Z,99713.84
2022-08-28T20:33:45.470Z,99692.44
2022-08-28T20:36:21.331Z,99703.63
2022-08-28T20:38:51.042Z,99687.16
2022-08-28T20:41:28.943Z,99690.31
2022-08-28T20:43:58.230Z,99694.72
2022-08-28T20:46:28.538Z,99675.28
2022-08-28T20:49:08.075Z,99705.59
2022-08-28T20:51:50.275Z,99695.53
2022-08-28T20:57:07.110Z,99685.16
2022-08-28T20:59:49.083Z,99699.28
2022-08-28T21:02:21.695Z,99676.88
2022-08-28T21:04:56.597Z,99683.53
2022-08-28T21:07:27.315Z,99686.19
2022-08-28T21:10:05.657Z,99688.09
2022-08-28T21:12:43.487Z,99689.75
2022-08-28T21:15:19.928Z,99679.81
2022-08-28T21:17:52.146Z,99678.59
2022-08-28T21:20:22.089Z,99676.09
2022-08-28T21:22:51.649Z,99676.28
2022-08-28T21:25:27.574Z,99667.38
2022-08-28T21:28:04.057Z,99663.63
2022-08-28T21:30:33.910Z,99670.97
2022-08-28T21:33:03.055Z,99661.69
2022-08-28T21:35:32.287Z,99664.56
2022-08-28T21:38:01.842Z,99656.50
2022-08-28T21:40:31.031Z,99661.97
2022-08-28T21:43:02.281Z,99667.31
2022-08-28T21:45:38.209Z,99666.91
2022-08-28T21:48:13.140Z,99664.47
2022-08-28T21:50:44.380Z,99647.72
2022-08-28T21:53:13.609Z,99653.56
2022-08-28T21:55:56.506Z,99642.09
2022-08-28T21:58:27.625Z,99649.31
2022-08-28T22:00:58.571Z,99646.13
2022-08-28T22:03:30.255Z,99643.00
2022-08-28T22:05:59.854Z,99619.38
2022-08-28T22:08:29.409Z,99634.75
2022-08-28T22:10:58.806Z,99633.69
2022-08-28T22:13:29.966Z,99626.84
2022-08-28T22:15:59.309Z,99627.41
2022-08-28T22:18:32.056Z,99624.97
2022-08-28T22:23:57.468Z,99623.56
2022-08-28T22:26:36.740Z,99628.00
2022-08-28T22:29:08.701Z,99635.31
2022-08-28T22:31:46.187Z,99625.16
2022-08-28T22:34:25.702Z,99607.94
2022-08-28T22:36:54.846Z,99623.63
2022-08-28T22:39:26.884Z,99625.72
2022-08-28T22:41:56.256Z,99627.00
2022-08-28T22:44:27.334Z,99620.44
2022-08-28T22:46:56.541Z,99621.72
2022-08-28T22:49:25.685Z,99616.66
2022-08-28T22:51:54.964Z,99616.84
2022-08-28T22:54:24.332Z,99611.41
2022-08-28T22:56:53.518Z,99612.34
2022-08-28T22:59:22.635Z,99611.78
2022-08-28T23:01:54.545Z,99603.09
2022-08-28T23:04:34.688Z,99606.59
2022-08-28T23:07:09.336Z,99612.38
2022-08-28T23:09:38.958Z,99610.03
2022-08-28T23:12:09.298Z,99601.81
2022-08-28T23:14:38.655Z,99601.06
2022-08-28T23:17:10.007Z,99572.25
2022-08-28T23:19:46.402Z,99590.63
2022-08-28T23:22:16.124Z,99597.09
2022-08-28T23:24:46.149Z,99591.25
2022-08-28T23:27:35.447Z,99591.41
2022-08-28T23:30:10.774Z,99584.66
2022-08-28T23:32:42.239Z,99590.91
2022-08-28T23:35:13.682Z,99577.44
2022-08-28T23:37:48.043Z,99588.72
2022-08-28T23:40:28.194Z,99582.19
2022-08-28T23:42:58.969Z,99584.66
2022-08-28T23:45:28.747Z,99578.88
2022-08-28T23:48:06.933Z,99561.19
2022-08-28T23:50:36.914Z,99580.31
2022-08-28T23:53:06.463Z,99568.47
2022-08-28T23:55:49.501Z,99568.97
2022-08-28T23:58:23.776Z,99567.88
